Wichelen, Belgium
Current Conditions -  °F | °C
As of 6:50 PM on Saturday 25 Oct 2014 (Local Time) from EBAW Reporting Station
Broken Clouds Broken Clouds  
Wind Chill: 55°   Ceiling: 4200
Heat Index: 55°   Visibility: 6mi
Dew Point: 45°   Wind: 5mph
Humidity: 67%   Direction: 190°S
Pressure: 30.15"   Gusts: NA
Location:  51.01°N, 3.98°E
Report Text: EBAW 251650Z 19004KT 9999 BKN042 13/07 Q1021 NOSIG
Loading
Personal Weather Stations






























Interactive Weather Map New forecast layout! Learn more

10-Day Weather Forecast

Advertisements
Track Severe Weather on mobile